sensor_id;sensor_type;location;lat;lon;timestamp;P1;durP1;ratioP1;P2;durP2;ratioP2
21000;SDS011;10658;50.920;12.238;2023-04-24T00:01:30;1.88;;;1.58;;
21000;SDS011;10658;50.920;12.238;2023-04-24T00:05:31;1.70;;;1.50;;
21000;SDS011;10658;50.920;12.238;2023-04-24T00:09:33;2.30;;;1.60;;
21000;SDS011;10658;50.920;12.238;2023-04-24T00:13:34;2.75;;;1.35;;
21000;SDS011;10658;50.920;12.238;2023-04-24T00:17:35;1.88;;;1.65;;
21000;SDS011;10658;50.920;12.238;2023-04-24T00:21:36;1.70;;;1.35;;
21000;SDS011;10658;50.920;12.238;2023-04-24T00:25:37;2.00;;;1.42;;
21000;SDS011;10658;50.920;12.238;2023-04-24T00:29:38;1.27;;;1.10;;
21000;SDS011;10658;50.920;12.238;2023-04-24T00:33:39;1.98;;;1.40;;
21000;SDS011;10658;50.920;12.238;2023-04-24T00:37:40;3.35;;;1.50;;
21000;SDS011;10658;50.920;12.238;2023-04-24T00:41:42;1.50;;;1.10;;
21000;SDS011;10658;50.920;12.238;2023-04-24T00:45:43;2.28;;;1.35;;
21000;SDS011;10658;50.920;12.238;2023-04-24T00:49:44;2.30;;;1.40;;
21000;SDS011;10658;50.920;12.238;2023-04-24T00:53:45;1.83;;;1.20;;
21000;SDS011;10658;50.920;12.238;2023-04-24T00:57:46;1.33;;;1.15;;
21000;SDS011;10658;50.920;12.238;2023-04-24T01:01:48;1.50;;;0.90;;
21000;SDS011;10658;50.920;12.238;2023-04-24T01:05:49;1.13;;;0.95;;
21000;SDS011;10658;50.920;12.238;2023-04-24T01:09:50;2.28;;;1.50;;
21000;SDS011;10658;50.920;12.238;2023-04-24T01:13:52;1.50;;;1.33;;
21000;SDS011;10658;50.920;12.238;2023-04-24T01:17:53;2.10;;;1.45;;
21000;SDS011;10658;50.920;12.238;2023-04-24T01:21:55;1.63;;;1.40;;
21000;SDS011;10658;50.920;12.238;2023-04-24T01:25:59;3.65;;;1.67;;
21000;SDS011;10658;50.920;12.238;2023-04-24T01:30:00;2.03;;;1.33;;
21000;SDS011;10658;50.920;12.238;2023-04-24T01:34:04;1.30;;;1.20;;
21000;SDS011;10658;50.920;12.238;2023-04-24T01:38:05;1.20;;;1.10;;
21000;SDS011;10658;50.920;12.238;2023-04-24T01:42:06;1.75;;;1.52;;
21000;SDS011;10658;50.920;12.238;2023-04-24T01:46:07;1.67;;;1.30;;
21000;SDS011;10658;50.920;12.238;2023-04-24T01:50:10;2.05;;;1.40;;
21000;SDS011;10658;50.920;12.238;2023-04-24T01:54:13;3.35;;;2.05;;
21000;SDS011;10658;50.920;12.238;2023-04-24T01:58:13;2.25;;;1.77;;
21000;SDS011;10658;50.920;12.238;2023-04-24T02:02:14;1.75;;;1.45;;
21000;SDS011;10658;50.920;12.238;2023-04-24T02:06:15;1.48;;;1.30;;
21000;SDS011;10658;50.920;12.238;2023-04-24T02:10:16;3.25;;;1.85;;
21000;SDS011;10658;50.920;12.238;2023-04-24T02:14:17;1.40;;;1.30;;
21000;SDS011;10658;50.920;12.238;2023-04-24T02:18:18;1.50;;;1.40;;
21000;SDS011;10658;50.920;12.238;2023-04-24T02:22:19;2.80;;;1.55;;
21000;SDS011;10658;50.920;12.238;2023-04-24T02:26:20;3.67;;;2.22;;
21000;SDS011;10658;50.920;12.238;2023-04-24T02:30:21;2.20;;;1.60;;
21000;SDS011;10658;50.920;12.238;2023-04-24T02:34:22;1.85;;;1.60;;
21000;SDS011;10658;50.920;12.238;2023-04-24T02:38:23;1.50;;;1.27;;
21000;SDS011;10658;50.920;12.238;2023-04-24T02:42:24;1.98;;;1.48;;
21000;SDS011;10658;50.920;12.238;2023-04-24T02:46:25;3.15;;;1.55;;
21000;SDS011;10658;50.920;12.238;2023-04-24T02:50:25;1.88;;;1.63;;
21000;SDS011;10658;50.920;12.238;2023-04-24T02:54:26;1.58;;;1.48;;
21000;SDS011;10658;50.920;12.238;2023-04-24T02:58:27;1.30;;;1.20;;
21000;SDS011;10658;50.920;12.238;2023-04-24T03:02:28;2.08;;;1.30;;
21000;SDS011;10658;50.920;12.238;2023-04-24T03:06:29;2.15;;;1.75;;
21000;SDS011;10658;50.920;12.238;2023-04-24T03:10:31;1.40;;;1.30;;
21000;SDS011;10658;50.920;12.238;2023-04-24T03:14:32;2.10;;;1.30;;
21000;SDS011;10658;50.920;12.238;2023-04-24T03:18:33;2.08;;;1.42;;
21000;SDS011;10658;50.920;12.238;2023-04-24T03:22:34;2.78;;;1.42;;
21000;SDS011;10658;50.920;12.238;2023-04-24T03:26:37;1.67;;;1.35;;
21000;SDS011;10658;50.920;12.238;2023-04-24T03:31:04;1.30;;;1.15;;
21000;SDS011;10658;50.920;12.238;2023-04-24T03:35:09;1.58;;;1.48;;
21000;SDS011;10658;50.920;12.238;2023-04-24T03:39:10;1.42;;;1.30;;
21000;SDS011;10658;50.920;12.238;2023-04-24T03:43:16;1.88;;;1.30;;
21000;SDS011;10658;50.920;12.238;2023-04-24T03:47:18;2.33;;;1.90;;
21000;SDS011;10658;50.920;12.238;2023-04-24T03:51:21;2.72;;;1.60;;
21000;SDS011;10658;50.920;12.238;2023-04-24T03:55:25;1.90;;;1.40;;
21000;SDS011;10658;50.920;12.238;2023-04-24T03:59:27;5.28;;;1.80;;
21000;SDS011;10658;50.920;12.238;2023-04-24T04:03:48;2.53;;;1.65;;
21000;SDS011;10658;50.920;12.238;2023-04-24T04:07:53;2.00;;;1.50;;
21000;SDS011;10658;50.920;12.238;2023-04-24T04:11:54;4.03;;;1.42;;
21000;SDS011;10658;50.920;12.238;2023-04-24T04:15:55;3.13;;;1.90;;
21000;SDS011;10658;50.920;12.238;2023-04-24T04:19:56;2.60;;;1.92;;
21000;SDS011;10658;50.920;12.238;2023-04-24T04:23:58;1.80;;;1.70;;
21000;SDS011;10658;50.920;12.238;2023-04-24T04:28:07;2.03;;;1.83;;
21000;SDS011;10658;50.920;12.238;2023-04-24T04:32:08;2.65;;;2.33;;
21000;SDS011;10658;50.920;12.238;2023-04-24T04:36:09;2.53;;;1.85;;
21000;SDS011;10658;50.920;12.238;2023-04-24T04:40:15;6.88;;;1.67;;
21000;SDS011;10658;50.920;12.238;2023-04-24T04:44:24;1.65;;;1.40;;
21000;SDS011;10658;50.920;12.238;2023-04-24T04:48:26;3.03;;;2.10;;
21000;SDS011;10658;50.920;12.238;2023-04-24T04:52:29;2.70;;;2.03;;
21000;SDS011;10658;50.920;12.238;2023-04-24T04:56:40;4.65;;;1.90;;
21000;SDS011;10658;50.920;12.238;2023-04-24T05:00:41;4.28;;;1.88;;
21000;SDS011;10658;50.920;12.238;2023-04-24T05:04:51;3.85;;;1.60;;
21000;SDS011;10658;50.920;12.238;2023-04-24T05:08:52;2.03;;;1.42;;
21000;SDS011;10658;50.920;12.238;2023-04-24T05:13:05;2.70;;;1.50;;
21000;SDS011;10658;50.920;12.238;2023-04-24T05:17:07;2.15;;;1.60;;
21000;SDS011;10658;50.920;12.238;2023-04-24T05:21:09;3.20;;;1.48;;
21000;SDS011;10658;50.920;12.238;2023-04-24T05:25:12;2.05;;;1.50;;
21000;SDS011;10658;50.920;12.238;2023-04-24T05:29:19;1.20;;;1.10;;
21000;SDS011;10658;50.920;12.238;2023-04-24T05:33:20;2.15;;;1.60;;
21000;SDS011;10658;50.920;12.238;2023-04-24T05:37:22;1.63;;;1.33;;
21000;SDS011;10658;50.920;12.238;2023-04-24T05:41:23;2.55;;;1.58;;
21000;SDS011;10658;50.920;12.238;2023-04-24T05:45:25;3.53;;;1.55;;
21000;SDS011;10658;50.920;12.238;2023-04-24T05:49:27;2.05;;;1.42;;
21000;SDS011;10658;50.920;12.238;2023-04-24T05:53:28;1.55;;;1.30;;
21000;SDS011;10658;50.920;12.238;2023-04-24T05:57:29;2.47;;;1.10;;
21000;SDS011;10658;50.920;12.238;2023-04-24T06:01:35;1.63;;;1.52;;
21000;SDS011;10658;50.920;12.238;2023-04-24T06:05:46;2.90;;;1.15;;
21000;SDS011;10658;50.920;12.238;2023-04-24T06:09:47;1.38;;;1.27;;
21000;SDS011;10658;50.920;12.238;2023-04-24T06:13:48;2.25;;;1.15;;
21000;SDS011;10658;50.920;12.238;2023-04-24T06:18:08;1.45;;;1.10;;
21000;SDS011;10658;50.920;12.238;2023-04-24T06:22:11;1.98;;;1.55;;
21000;SDS011;10658;50.920;12.238;2023-04-24T06:26:12;2.00;;;1.30;;
21000;SDS011;10658;50.920;12.238;2023-04-24T06:30:13;2.38;;;1.73;;
21000;SDS011;10658;50.920;12.238;2023-04-24T06:34:14;2.55;;;1.30;;
21000;SDS011;10658;50.920;12.238;2023-04-24T06:38:15;2.28;;;1.10;;
21000;SDS011;10658;50.920;12.238;2023-04-24T06:42:16;1.40;;;1.13;;
21000;SDS011;10658;50.920;12.238;2023-04-24T06:46:18;1.42;;;0.88;;
21000;SDS011;10658;50.920;12.238;2023-04-24T06:50:18;1.30;;;1.20;;
21000;SDS011;10658;50.920;12.238;2023-04-24T06:54:20;1.70;;;1.60;;
21000;SDS011;10658;50.920;12.238;2023-04-24T06:58:20;2.47;;;1.02;;
21000;SDS011;10658;50.920;12.238;2023-04-24T07:02:21;1.10;;;1.00;;
21000;SDS011;10658;50.920;12.238;2023-04-24T07:06:22;1.92;;;1.15;;
21000;SDS011;10658;50.920;12.238;2023-04-24T07:10:24;1.10;;;1.00;;
21000;SDS011;10658;50.920;12.238;2023-04-24T07:14:27;2.05;;;1.08;;
21000;SDS011;10658;50.920;12.238;2023-04-24T07:18:27;1.13;;;0.80;;
21000;SDS011;10658;50.920;12.238;2023-04-24T07:22:28;3.13;;;0.90;;
21000;SDS011;10658;50.920;12.238;2023-04-24T07:26:29;8.13;;;1.27;;
21000;SDS011;10658;50.920;12.238;2023-04-24T07:30:31;1.85;;;1.13;;
21000;SDS011;10658;50.920;12.238;2023-04-24T07:34:33;3.45;;;1.10;;
21000;SDS011;10658;50.920;12.238;2023-04-24T07:38:33;3.05;;;0.90;;
21000;SDS011;10658;50.920;12.238;2023-04-24T07:42:34;1.75;;;1.00;;
21000;SDS011;10658;50.920;12.238;2023-04-24T07:46:36;1.30;;;0.90;;
21000;SDS011;10658;50.920;12.238;2023-04-24T07:50:37;0.90;;;0.80;;
21000;SDS011;10658;50.920;12.238;2023-04-24T07:54:38;2.22;;;1.00;;
21000;SDS011;10658;50.920;12.238;2023-04-24T07:58:39;0.63;;;0.63;;
21000;SDS011;10658;50.920;12.238;2023-04-24T08:02:40;1.00;;;0.63;;
21000;SDS011;10658;50.920;12.238;2023-04-24T08:06:40;1.05;;;0.65;;
21000;SDS011;10658;50.920;12.238;2023-04-24T08:10:41;0.77;;;0.55;;
21000;SDS011;10658;50.920;12.238;2023-04-24T08:14:42;0.88;;;0.65;;
21000;SDS011;10658;50.920;12.238;2023-04-24T08:18:43;1.23;;;0.85;;
21000;SDS011;10658;50.920;12.238;2023-04-24T08:22:44;1.20;;;1.02;;
21000;SDS011;10658;50.920;12.238;2023-04-24T08:26:47;1.05;;;0.60;;
21000;SDS011;10658;50.920;12.238;2023-04-24T08:30:50;1.25;;;0.43;;
21000;SDS011;10658;50.920;12.238;2023-04-24T08:34:55;0.80;;;0.30;;
21000;SDS011;10658;50.920;12.238;2023-04-24T08:38:59;0.60;;;0.50;;
21000;SDS011;10658;50.920;12.238;2023-04-24T08:43:00;0.82;;;0.32;;
21000;SDS011;10658;50.920;12.238;2023-04-24T08:47:04;0.65;;;0.65;;
21000;SDS011;10658;50.920;12.238;2023-04-24T08:51:06;0.22;;;0.22;;
21000;SDS011;10658;50.920;12.238;2023-04-24T08:55:08;2.65;;;0.50;;
21000;SDS011;10658;50.920;12.238;2023-04-24T08:59:09;0.40;;;0.32;;
21000;SDS011;10658;50.920;12.238;2023-04-24T09:03:12;0.43;;;0.43;;
21000;SDS011;10658;50.920;12.238;2023-04-24T09:07:17;0.40;;;0.40;;
21000;SDS011;10658;50.920;12.238;2023-04-24T09:11:19;0.60;;;0.60;;
21000;SDS011;10658;50.920;12.238;2023-04-24T09:15:20;0.68;;;0.30;;
21000;SDS011;10658;50.920;12.238;2023-04-24T09:19:21;1.40;;;0.65;;
21000;SDS011;10658;50.920;12.238;2023-04-24T09:23:22;2.08;;;1.15;;
21000;SDS011;10658;50.920;12.238;2023-04-24T09:27:25;0.88;;;0.80;;
21000;SDS011;10658;50.920;12.238;2023-04-24T09:31:29;0.70;;;0.70;;
21000;SDS011;10658;50.920;12.238;2023-04-24T09:35:30;0.63;;;0.60;;
21000;SDS011;10658;50.920;12.238;2023-04-24T09:39:32;3.33;;;0.90;;
21000;SDS011;10658;50.920;12.238;2023-04-24T09:43:33;0.70;;;0.70;;
21000;SDS011;10658;50.920;12.238;2023-04-24T09:47:36;3.13;;;0.60;;
21000;SDS011;10658;50.920;12.238;2023-04-24T09:51:38;1.85;;;0.60;;
21000;SDS011;10658;50.920;12.238;2023-04-24T09:55:39;3.00;;;0.80;;
21000;SDS011;10658;50.920;12.238;2023-04-24T09:59:45;0.60;;;0.50;;
21000;SDS011;10658;50.920;12.238;2023-04-24T10:03:46;0.40;;;0.40;;
21000;SDS011;10658;50.920;12.238;2023-04-24T10:07:47;2.40;;;0.52;;
21000;SDS011;10658;50.920;12.238;2023-04-24T10:11:48;0.68;;;0.52;;
21000;SDS011;10658;50.920;12.238;2023-04-24T10:15:50;1.35;;;0.77;;
21000;SDS011;10658;50.920;12.238;2023-04-24T10:19:51;1.58;;;0.60;;
21000;SDS011;10658;50.920;12.238;2023-04-24T10:23:52;1.75;;;0.75;;
21000;SDS011;10658;50.920;12.238;2023-04-24T10:27:54;0.60;;;0.60;;
21000;SDS011;10658;50.920;12.238;2023-04-24T10:31:59;0.95;;;0.88;;
21000;SDS011;10658;50.920;12.238;2023-04-24T10:36:00;0.73;;;0.73;;
21000;SDS011;10658;50.920;12.238;2023-04-24T10:40:01;1.88;;;1.08;;
21000;SDS011;10658;50.920;12.238;2023-04-24T10:48:14;1.65;;;0.90;;
21000;SDS011;10658;50.920;12.238;2023-04-24T10:52:16;1.30;;;0.90;;
21000;SDS011;10658;50.920;12.238;2023-04-24T10:56:17;1.58;;;0.80;;
21000;SDS011;10658;50.920;12.238;2023-04-24T11:00:19;2.15;;;0.98;;
21000;SDS011;10658;50.920;12.238;2023-04-24T11:04:30;0.80;;;0.80;;
21000;SDS011;10658;50.920;12.238;2023-04-24T11:12:44;1.40;;;0.80;;
21000;SDS011;10658;50.920;12.238;2023-04-24T11:16:46;0.88;;;0.75;;
21000;SDS011;10658;50.920;12.238;2023-04-24T11:20:52;2.45;;;0.88;;
21000;SDS011;10658;50.920;12.238;2023-04-24T11:24:54;2.58;;;1.00;;
21000;SDS011;10658;50.920;12.238;2023-04-24T11:29:08;0.85;;;0.75;;
21000;SDS011;10658;50.920;12.238;2023-04-24T11:33:09;3.20;;;0.90;;
21000;SDS011;10658;50.920;12.238;2023-04-24T11:37:10;1.67;;;0.70;;
21000;SDS011;10658;50.920;12.238;2023-04-24T11:41:11;2.25;;;0.95;;
21000;SDS011;10658;50.920;12.238;2023-04-24T11:45:13;1.15;;;0.80;;
21000;SDS011;10658;50.920;12.238;2023-04-24T11:49:15;0.88;;;0.82;;
21000;SDS011;10658;50.920;12.238;2023-04-24T11:53:18;1.58;;;0.82;;
21000;SDS011;10658;50.920;12.238;2023-04-24T11:57:21;2.03;;;0.88;;
21000;SDS011;10658;50.920;12.238;2023-04-24T12:01:24;1.15;;;0.93;;
21000;SDS011;10658;50.920;12.238;2023-04-24T12:05:25;1.10;;;0.90;;
21000;SDS011;10658;50.920;12.238;2023-04-24T12:09:27;1.90;;;0.75;;
21000;SDS011;10658;50.920;12.238;2023-04-24T12:13:28;1.80;;;0.75;;
21000;SDS011;10658;50.920;12.238;2023-04-24T12:17:30;0.88;;;0.88;;
21000;SDS011;10658;50.920;12.238;2023-04-24T12:21:31;2.42;;;0.50;;
21000;SDS011;10658;50.920;12.238;2023-04-24T12:25:32;1.15;;;0.70;;
21000;SDS011;10658;50.920;12.238;2023-04-24T12:29:33;1.00;;;0.80;;
21000;SDS011;10658;50.920;12.238;2023-04-24T12:33:34;0.70;;;0.70;;
21000;SDS011;10658;50.920;12.238;2023-04-24T12:37:36;1.02;;;0.70;;
21000;SDS011;10658;50.920;12.238;2023-04-24T12:41:37;0.57;;;0.57;;
21000;SDS011;10658;50.920;12.238;2023-04-24T12:45:37;1.10;;;0.98;;
21000;SDS011;10658;50.920;12.238;2023-04-24T12:49:38;1.55;;;0.90;;
21000;SDS011;10658;50.920;12.238;2023-04-24T12:53:39;1.35;;;0.88;;
21000;SDS011;10658;50.920;12.238;2023-04-24T12:57:40;0.70;;;0.70;;
21000;SDS011;10658;50.920;12.238;2023-04-24T13:01:41;2.22;;;1.13;;
21000;SDS011;10658;50.920;12.238;2023-04-24T13:05:42;1.48;;;0.95;;
21000;SDS011;10658;50.920;12.238;2023-04-24T13:09:44;0.70;;;0.70;;
21000;SDS011;10658;50.920;12.238;2023-04-24T13:13:45;0.80;;;0.80;;
21000;SDS011;10658;50.920;12.238;2023-04-24T13:17:46;3.30;;;1.00;;
21000;SDS011;10658;50.920;12.238;2023-04-24T13:21:46;0.82;;;0.70;;
21000;SDS011;10658;50.920;12.238;2023-04-24T13:25:47;1.15;;;0.98;;
21000;SDS011;10658;50.920;12.238;2023-04-24T13:29:48;1.67;;;0.80;;
21000;SDS011;10658;50.920;12.238;2023-04-24T13:33:49;0.70;;;0.70;;
21000;SDS011;10658;50.920;12.238;2023-04-24T13:37:49;1.77;;;0.93;;
21000;SDS011;10658;50.920;12.238;2023-04-24T13:41:50;2.63;;;1.00;;
21000;SDS011;10658;50.920;12.238;2023-04-24T13:45:51;0.60;;;0.60;;
21000;SDS011;10658;50.920;12.238;2023-04-24T13:49:52;0.95;;;0.93;;
21000;SDS011;10658;50.920;12.238;2023-04-24T13:53:54;1.10;;;1.00;;
21000;SDS011;10658;50.920;12.238;2023-04-24T13:57:55;0.82;;;0.80;;
21000;SDS011;10658;50.920;12.238;2023-04-24T14:01:56;1.90;;;0.80;;
21000;SDS011;10658;50.920;12.238;2023-04-24T14:05:57;1.05;;;0.60;;
21000;SDS011;10658;50.920;12.238;2023-04-24T14:09:57;0.70;;;0.70;;
21000;SDS011;10658;50.920;12.238;2023-04-24T14:13:58;1.95;;;0.50;;
21000;SDS011;10658;50.920;12.238;2023-04-24T14:17:59;1.48;;;0.70;;
21000;SDS011;10658;50.920;12.238;2023-04-24T14:22:00;2.25;;;1.27;;
21000;SDS011;10658;50.920;12.238;2023-04-24T14:26:01;1.65;;;1.00;;
21000;SDS011;10658;50.920;12.238;2023-04-24T14:30:02;1.48;;;1.00;;
21000;SDS011;10658;50.920;12.238;2023-04-24T14:34:04;2.50;;;1.40;;
21000;SDS011;10658;50.920;12.238;2023-04-24T14:38:05;0.82;;;0.82;;
21000;SDS011;10658;50.920;12.238;2023-04-24T14:42:06;2.15;;;1.00;;
21000;SDS011;10658;50.920;12.238;2023-04-24T14:46:07;1.08;;;0.98;;
21000;SDS011;10658;50.920;12.238;2023-04-24T14:50:08;4.53;;;1.20;;
21000;SDS011;10658;50.920;12.238;2023-04-24T14:54:08;2.08;;;1.15;;
21000;SDS011;10658;50.920;12.238;2023-04-24T14:58:09;1.02;;;0.90;;
21000;SDS011;10658;50.920;12.238;2023-04-24T15:02:11;2.75;;;1.35;;
21000;SDS011;10658;50.920;12.238;2023-04-24T15:06:11;1.02;;;0.85;;
21000;SDS011;10658;50.920;12.238;2023-04-24T15:10:12;0.77;;;0.60;;
21000;SDS011;10658;50.920;12.238;2023-04-24T15:14:13;1.20;;;0.38;;
21000;SDS011;10658;50.920;12.238;2023-04-24T15:18:14;0.82;;;0.50;;
21000;SDS011;10658;50.920;12.238;2023-04-24T15:22:15;0.63;;;0.60;;
21000;SDS011;10658;50.920;12.238;2023-04-24T15:26:16;0.40;;;0.40;;
21000;SDS011;10658;50.920;12.238;2023-04-24T15:30:18;1.98;;;0.80;;
21000;SDS011;10658;50.920;12.238;2023-04-24T15:34:19;0.90;;;0.40;;
21000;SDS011;10658;50.920;12.238;2023-04-24T15:38:23;0.40;;;0.40;;
21000;SDS011;10658;50.920;12.238;2023-04-24T15:42:24;0.57;;;0.55;;
21000;SDS011;10658;50.920;12.238;2023-04-24T15:46:25;0.40;;;0.40;;
21000;SDS011;10658;50.920;12.238;2023-04-24T15:50:26;0.75;;;0.45;;
21000;SDS011;10658;50.920;12.238;2023-04-24T15:54:27;1.25;;;0.40;;
21000;SDS011;10658;50.920;12.238;2023-04-24T15:58:28;0.77;;;0.43;;
21000;SDS011;10658;50.920;12.238;2023-04-24T16:02:28;0.35;;;0.35;;
21000;SDS011;10658;50.920;12.238;2023-04-24T16:06:29;0.40;;;0.40;;
21000;SDS011;10658;50.920;12.238;2023-04-24T16:10:31;0.30;;;0.30;;
21000;SDS011;10658;50.920;12.238;2023-04-24T16:14:32;0.40;;;0.40;;
21000;SDS011;10658;50.920;12.238;2023-04-24T16:18:32;0.77;;;0.40;;
21000;SDS011;10658;50.920;12.238;2023-04-24T16:22:33;0.45;;;0.45;;
21000;SDS011;10658;50.920;12.238;2023-04-24T16:26:34;1.00;;;0.60;;
21000;SDS011;10658;50.920;12.238;2023-04-24T16:30:35;0.50;;;0.50;;
21000;SDS011;10658;50.920;12.238;2023-04-24T16:34:39;0.50;;;0.40;;
21000;SDS011;10658;50.920;12.238;2023-04-24T16:38:40;0.40;;;0.40;;
21000;SDS011;10658;50.920;12.238;2023-04-24T16:42:43;0.70;;;0.47;;
21000;SDS011;10658;50.920;12.238;2023-04-24T16:46:44;0.98;;;0.70;;
21000;SDS011;10658;50.920;12.238;2023-04-24T16:50:45;3.90;;;0.70;;
21000;SDS011;10658;50.920;12.238;2023-04-24T16:54:50;1.20;;;0.90;;
21000;SDS011;10658;50.920;12.238;2023-04-24T16:59:02;0.60;;;0.60;;
21000;SDS011;10658;50.920;12.238;2023-04-24T17:03:03;0.90;;;0.80;;
21000;SDS011;10658;50.920;12.238;2023-04-24T17:07:04;1.92;;;0.57;;
21000;SDS011;10658;50.920;12.238;2023-04-24T17:11:04;0.63;;;0.63;;
21000;SDS011;10658;50.920;12.238;2023-04-24T17:15:05;1.38;;;0.50;;
21000;SDS011;10658;50.920;12.238;2023-04-24T17:19:06;1.00;;;0.90;;
21000;SDS011;10658;50.920;12.238;2023-04-24T17:23:07;0.45;;;0.45;;
21000;SDS011;10658;50.920;12.238;2023-04-24T17:27:11;0.88;;;0.70;;
21000;SDS011;10658;50.920;12.238;2023-04-24T17:31:13;1.17;;;1.08;;
21000;SDS011;10658;50.920;12.238;2023-04-24T17:35:14;0.80;;;0.73;;
21000;SDS011;10658;50.920;12.238;2023-04-24T17:39:14;0.60;;;0.60;;
21000;SDS011;10658;50.920;12.238;2023-04-24T17:43:15;2.25;;;0.80;;
21000;SDS011;10658;50.920;12.238;2023-04-24T17:47:17;3.65;;;1.50;;
21000;SDS011;10658;50.920;12.238;2023-04-24T17:51:20;3.03;;;1.25;;
21000;SDS011;10658;50.920;12.238;2023-04-24T17:55:23;1.92;;;1.55;;
21000;SDS011;10658;50.920;12.238;2023-04-24T17:59:24;1.65;;;1.52;;
21000;SDS011;10658;50.920;12.238;2023-04-24T18:03:25;2.20;;;1.60;;
21000;SDS011;10658;50.920;12.238;2023-04-24T18:07:26;2.25;;;1.70;;
21000;SDS011;10658;50.920;12.238;2023-04-24T18:11:27;1.88;;;1.60;;
21000;SDS011;10658;50.920;12.238;2023-04-24T18:15:28;2.42;;;1.52;;
21000;SDS011;10658;50.920;12.238;2023-04-24T18:19:30;2.85;;;2.35;;
21000;SDS011;10658;50.920;12.238;2023-04-24T18:23:31;2.45;;;2.25;;
21000;SDS011;10658;50.920;12.238;2023-04-24T18:27:31;3.67;;;2.50;;
21000;SDS011;10658;50.920;12.238;2023-04-24T18:31:32;3.95;;;2.80;;
21000;SDS011;10658;50.920;12.238;2023-04-24T18:35:33;2.78;;;2.13;;
21000;SDS011;10658;50.920;12.238;2023-04-24T18:39:34;2.03;;;1.83;;
21000;SDS011;10658;50.920;12.238;2023-04-24T18:43:35;2.75;;;2.10;;
21000;SDS011;10658;50.920;12.238;2023-04-24T18:47:35;3.47;;;2.03;;
21000;SDS011;10658;50.920;12.238;2023-04-24T18:51:36;1.90;;;1.80;;
21000;SDS011;10658;50.920;12.238;2023-04-24T18:55:37;2.53;;;2.03;;
21000;SDS011;10658;50.920;12.238;2023-04-24T18:59:38;2.15;;;1.77;;
21000;SDS011;10658;50.920;12.238;2023-04-24T19:03:39;2.47;;;2.03;;
21000;SDS011;10658;50.920;12.238;2023-04-24T19:07:40;2.55;;;2.05;;
21000;SDS011;10658;50.920;12.238;2023-04-24T19:11:41;2.50;;;2.08;;
21000;SDS011;10658;50.920;12.238;2023-04-24T19:15:42;3.13;;;2.28;;
21000;SDS011;10658;50.920;12.238;2023-04-24T19:19:43;3.30;;;1.92;;
21000;SDS011;10658;50.920;12.238;2023-04-24T19:23:44;2.42;;;2.10;;
21000;SDS011;10658;50.920;12.238;2023-04-24T19:27:45;2.72;;;2.53;;
21000;SDS011;10658;50.920;12.238;2023-04-24T19:31:46;2.13;;;1.80;;
21000;SDS011;10658;50.920;12.238;2023-04-24T19:35:47;3.10;;;2.78;;
21000;SDS011;10658;50.920;12.238;2023-04-24T19:39:47;2.45;;;1.70;;
21000;SDS011;10658;50.920;12.238;2023-04-24T19:43:48;3.05;;;1.70;;
21000;SDS011;10658;50.920;12.238;2023-04-24T19:47:49;2.03;;;1.83;;
21000;SDS011;10658;50.920;12.238;2023-04-24T19:51:50;3.13;;;1.60;;
21000;SDS011;10658;50.920;12.238;2023-04-24T19:55:51;3.33;;;1.95;;
21000;SDS011;10658;50.920;12.238;2023-04-24T19:59:52;2.05;;;1.83;;
21000;SDS011;10658;50.920;12.238;2023-04-24T20:03:52;2.55;;;1.95;;
21000;SDS011;10658;50.920;12.238;2023-04-24T20:07:53;2.53;;;2.08;;
21000;SDS011;10658;50.920;12.238;2023-04-24T20:11:54;4.65;;;1.85;;
21000;SDS011;10658;50.920;12.238;2023-04-24T20:15:56;3.03;;;2.28;;
21000;SDS011;10658;50.920;12.238;2023-04-24T20:19:56;1.75;;;1.65;;
21000;SDS011;10658;50.920;12.238;2023-04-24T20:23:57;2.58;;;1.92;;
21000;SDS011;10658;50.920;12.238;2023-04-24T20:27:58;2.13;;;1.83;;
21000;SDS011;10658;50.920;12.238;2023-04-24T20:31:59;2.53;;;2.00;;
21000;SDS011;10658;50.920;12.238;2023-04-24T20:36:00;2.67;;;2.10;;
21000;SDS011;10658;50.920;12.238;2023-04-24T20:40:01;2.92;;;2.28;;
21000;SDS011;10658;50.920;12.238;2023-04-24T20:44:06;2.70;;;2.40;;
21000;SDS011;10658;50.920;12.238;2023-04-24T20:48:06;2.25;;;1.90;;
21000;SDS011;10658;50.920;12.238;2023-04-24T20:52:08;3.97;;;2.40;;
21000;SDS011;10658;50.920;12.238;2023-04-24T20:56:09;3.80;;;2.75;;
21000;SDS011;10658;50.920;12.238;2023-04-24T21:00:11;3.65;;;2.35;;
21000;SDS011;10658;50.920;12.238;2023-04-24T21:04:12;3.65;;;2.53;;
21000;SDS011;10658;50.920;12.238;2023-04-24T21:08:13;7.07;;;2.70;;
21000;SDS011;10658;50.920;12.238;2023-04-24T21:12:14;5.53;;;2.80;;
21000;SDS011;10658;50.920;12.238;2023-04-24T21:16:15;4.30;;;2.50;;
21000;SDS011;10658;50.920;12.238;2023-04-24T21:20:15;5.45;;;3.03;;
21000;SDS011;10658;50.920;12.238;2023-04-24T21:24:16;3.90;;;2.80;;
21000;SDS011;10658;50.920;12.238;2023-04-24T21:28:17;2.83;;;2.08;;
21000;SDS011;10658;50.920;12.238;2023-04-24T21:32:18;4.85;;;2.40;;
21000;SDS011;10658;50.920;12.238;2023-04-24T21:36:18;5.25;;;2.33;;
21000;SDS011;10658;50.920;12.238;2023-04-24T21:40:19;3.78;;;2.47;;
21000;SDS011;10658;50.920;12.238;2023-04-24T21:44:20;3.78;;;2.15;;
21000;SDS011;10658;50.920;12.238;2023-04-24T21:48:21;4.03;;;2.35;;
21000;SDS011;10658;50.920;12.238;2023-04-24T21:52:21;3.95;;;2.28;;
21000;SDS011;10658;50.920;12.238;2023-04-24T21:56:22;5.07;;;2.28;;
21000;SDS011;10658;50.920;12.238;2023-04-24T22:00:23;5.00;;;2.92;;
21000;SDS011;10658;50.920;12.238;2023-04-24T22:04:24;4.07;;;2.58;;
21000;SDS011;10658;50.920;12.238;2023-04-24T22:08:25;7.72;;;2.55;;
21000;SDS011;10658;50.920;12.238;2023-04-24T22:12:26;4.18;;;2.47;;
21000;SDS011;10658;50.920;12.238;2023-04-24T22:16:27;5.40;;;2.75;;
21000;SDS011;10658;50.920;12.238;2023-04-24T22:20:28;3.67;;;2.30;;
21000;SDS011;10658;50.920;12.238;2023-04-24T22:24:32;3.28;;;2.47;;
21000;SDS011;10658;50.920;12.238;2023-04-24T22:28:33;3.35;;;2.75;;
21000;SDS011;10658;50.920;12.238;2023-04-24T22:32:34;3.63;;;2.90;;
21000;SDS011;10658;50.920;12.238;2023-04-24T22:36:36;5.15;;;2.55;;
21000;SDS011;10658;50.920;12.238;2023-04-24T22:40:36;4.85;;;2.95;;
21000;SDS011;10658;50.920;12.238;2023-04-24T22:44:37;6.70;;;3.20;;
21000;SDS011;10658;50.920;12.238;2023-04-24T22:48:38;2.92;;;2.35;;
21000;SDS011;10658;50.920;12.238;2023-04-24T22:52:39;4.22;;;2.88;;
21000;SDS011;10658;50.920;12.238;2023-04-24T22:56:40;5.13;;;2.42;;
21000;SDS011;10658;50.920;12.238;2023-04-24T23:00:41;6.13;;;3.40;;
21000;SDS011;10658;50.920;12.238;2023-04-24T23:04:42;6.63;;;2.97;;
21000;SDS011;10658;50.920;12.238;2023-04-24T23:08:44;5.78;;;3.42;;
21000;SDS011;10658;50.920;12.238;2023-04-24T23:12:45;4.30;;;2.97;;
21000;SDS011;10658;50.920;12.238;2023-04-24T23:16:46;4.05;;;2.78;;
21000;SDS011;10658;50.920;12.238;2023-04-24T23:20:47;6.00;;;3.50;;
21000;SDS011;10658;50.920;12.238;2023-04-24T23:24:47;5.60;;;3.20;;
21000;SDS011;10658;50.920;12.238;2023-04-24T23:28:48;4.47;;;3.35;;
21000;SDS011;10658;50.920;12.238;2023-04-24T23:32:49;6.32;;;2.92;;
21000;SDS011;10658;50.920;12.238;2023-04-24T23:36:50;4.65;;;3.22;;
21000;SDS011;10658;50.920;12.238;2023-04-24T23:40:53;4.88;;;3.42;;
21000;SDS011;10658;50.920;12.238;2023-04-24T23:44:54;4.40;;;3.38;;
21000;SDS011;10658;50.920;12.238;2023-04-24T23:48:55;6.18;;;3.60;;
21000;SDS011;10658;50.920;12.238;2023-04-24T23:52:56;5.03;;;3.55;;
21000;SDS011;10658;50.920;12.238;2023-04-24T23:56:57;6.13;;;3.70;;
